sensor_id;sensor_type;location;lat;lon;timestamp;pressure;altitude;pressure_sealevel;temperature;humidity
61908;BME280;47864;52.526;19.672;2022-09-09T00:00:17;100631.97;;;12.41;100.00
61908;BME280;47864;52.526;19.672;2022-09-09T00:02:20;100632.94;;;12.32;100.00
61908;BME280;47864;52.526;19.672;2022-09-09T00:04:32;100625.63;;;12.34;100.00
61908;BME280;47864;52.526;19.672;2022-09-09T00:09:14;100636.41;;;12.25;100.00
61908;BME280;47864;52.526;19.672;2022-09-09T00:11:27;100636.00;;;12.11;100.00
61908;BME280;47864;52.526;19.672;2022-09-09T00:13:42;100639.78;;;12.01;100.00
61908;BME280;47864;52.526;19.672;2022-09-09T00:20:50;100630.41;;;12.23;100.00
61908;BME280;47864;52.526;19.672;2022-09-09T00:23:12;100641.47;;;12.02;100.00
61908;BME280;47864;52.526;19.672;2022-09-09T00:25:27;100623.38;;;11.79;100.00
61908;BME280;47864;52.526;19.672;2022-09-09T00:27:50;100631.00;;;11.74;100.00
61908;BME280;47864;52.526;19.672;2022-09-09T00:32:21;100620.88;;;11.78;100.00
61908;BME280;47864;52.526;19.672;2022-09-09T00:34:24;100615.75;;;11.76;100.00
61908;BME280;47864;52.526;19.672;2022-09-09T00:36:27;100622.81;;;11.68;100.00
61908;BME280;47864;52.526;19.672;2022-09-09T00:41:07;100621.06;;;11.76;100.00
61908;BME280;47864;52.526;19.672;2022-09-09T00:45:47;100626.38;;;11.76;100.00
61908;BME280;47864;52.526;19.672;2022-09-09T00:47:53;100626.59;;;11.65;100.00
61908;BME280;47864;52.526;19.672;2022-09-09T00:52:28;100618.06;;;11.79;100.00
61908;BME280;47864;52.526;19.672;2022-09-09T00:57:02;100619.06;;;11.78;100.00
61908;BME280;47864;52.526;19.672;2022-09-09T01:01:17;100616.50;;;11.69;100.00
61908;BME280;47864;52.526;19.672;2022-09-09T01:03:34;100616.22;;;11.54;100.00
61908;BME280;47864;52.526;19.672;2022-09-09T01:05:46;100619.91;;;11.61;100.00
61908;BME280;47864;52.526;19.672;2022-09-09T01:07:50;100626.38;;;11.76;100.00
61908;BME280;47864;52.526;19.672;2022-09-09T01:09:59;100624.94;;;11.64;100.00
61908;BME280;47864;52.526;19.672;2022-09-09T01:12:17;100622.28;;;11.64;100.00
61908;BME280;47864;52.526;19.672;2022-09-09T01:16:36;100618.63;;;11.65;100.00
61908;BME280;47864;52.526;19.672;2022-09-09T01:18:49;100620.31;;;11.66;100.00
61908;BME280;47864;52.526;19.672;2022-09-09T01:21:07;100617.16;;;11.71;100.00
61908;BME280;47864;52.526;19.672;2022-09-09T01:28:17;100615.28;;;11.63;100.00
61908;BME280;47864;52.526;19.672;2022-09-09T01:30:21;100607.59;;;11.52;100.00
61908;BME280;47864;52.526;19.672;2022-09-09T01:32:59;100605.25;;;11.49;100.00
61908;BME280;47864;52.526;19.672;2022-09-09T01:35:02;100607.38;;;11.45;100.00
61908;BME280;47864;52.526;19.672;2022-09-09T01:37:07;100602.50;;;11.59;100.00
61908;BME280;47864;52.526;19.672;2022-09-09T01:39:10;100612.13;;;11.60;100.00
61908;BME280;47864;52.526;19.672;2022-09-09T01:41:12;100611.25;;;11.51;100.00
61908;BME280;47864;52.526;19.672;2022-09-09T01:43:14;100612.03;;;11.69;100.00
61908;BME280;47864;52.526;19.672;2022-09-09T01:45:16;100611.34;;;11.67;100.00
61908;BME280;47864;52.526;19.672;2022-09-09T01:47:18;100615.63;;;11.60;100.00
61908;BME280;47864;52.526;19.672;2022-09-09T01:49:20;100605.78;;;11.53;100.00
61908;BME280;47864;52.526;19.672;2022-09-09T01:51:22;100594.78;;;11.48;100.00
61908;BME280;47864;52.526;19.672;2022-09-09T01:53:24;100594.97;;;11.54;100.00
61908;BME280;47864;52.526;19.672;2022-09-09T01:55:37;100593.44;;;11.43;100.00
61908;BME280;47864;52.526;19.672;2022-09-09T02:00:11;100596.38;;;11.66;100.00
61908;BME280;47864;52.526;19.672;2022-09-09T02:02:28;100595.97;;;11.53;100.00
61908;BME280;47864;52.526;19.672;2022-09-09T02:04:39;100596.97;;;11.52;100.00
61908;BME280;47864;52.526;19.672;2022-09-09T02:06:42;100597.81;;;11.53;100.00
61908;BME280;47864;52.526;19.672;2022-09-09T02:08:48;100589.56;;;11.64;100.00
61908;BME280;47864;52.526;19.672;2022-09-09T02:10:58;100596.84;;;11.62;100.00
61908;BME280;47864;52.526;19.672;2022-09-09T02:13:09;100595.25;;;11.69;100.00
61908;BME280;47864;52.526;19.672;2022-09-09T02:15:21;100601.66;;;11.58;100.00
61908;BME280;47864;52.526;19.672;2022-09-09T02:17:31;100597.69;;;11.62;100.00
61908;BME280;47864;52.526;19.672;2022-09-09T02:19:41;100602.16;;;11.62;100.00
61908;BME280;47864;52.526;19.672;2022-09-09T02:21:45;100574.06;;;11.51;100.00
61908;BME280;47864;52.526;19.672;2022-09-09T02:23:49;100602.69;;;11.65;100.00
61908;BME280;47864;52.526;19.672;2022-09-09T02:25:51;100600.13;;;11.56;100.00
61908;BME280;47864;52.526;19.672;2022-09-09T02:27:55;100593.31;;;11.53;100.00
61908;BME280;47864;52.526;19.672;2022-09-09T02:29:59;100603.00;;;11.62;100.00
61908;BME280;47864;52.526;19.672;2022-09-09T02:32:05;100597.81;;;11.53;100.00
61908;BME280;47864;52.526;19.672;2022-09-09T02:34:09;100607.47;;;11.62;100.00
61908;BME280;47864;52.526;19.672;2022-09-09T02:36:11;100601.03;;;11.64;100.00
61908;BME280;47864;52.526;19.672;2022-09-09T02:38:16;100600.34;;;11.62;100.00
61908;BME280;47864;52.526;19.672;2022-09-09T02:40:18;100607.31;;;11.63;100.00
61908;BME280;47864;52.526;19.672;2022-09-09T02:42:20;100605.28;;;11.75;100.00
61908;BME280;47864;52.526;19.672;2022-09-09T02:44:22;100606.19;;;11.92;100.00
61908;BME280;47864;52.526;19.672;2022-09-09T02:49:04;100598.84;;;11.86;100.00
61908;BME280;47864;52.526;19.672;2022-09-09T02:51:13;100601.84;;;11.91;100.00
61908;BME280;47864;52.526;19.672;2022-09-09T02:53:19;100599.81;;;11.76;100.00
61908;BME280;47864;52.526;19.672;2022-09-09T02:57:59;100613.00;;;11.68;100.00
61908;BME280;47864;52.526;19.672;2022-09-09T03:00:03;100608.47;;;11.87;100.00
61908;BME280;47864;52.526;19.672;2022-09-09T03:02:05;100609.16;;;11.89;100.00
61908;BME280;47864;52.526;19.672;2022-09-09T03:04:07;100600.97;;;11.82;100.00
61908;BME280;47864;52.526;19.672;2022-09-09T03:06:08;100603.88;;;11.71;100.00
61908;BME280;47864;52.526;19.672;2022-09-09T03:08:11;100602.53;;;11.67;100.00
61908;BME280;47864;52.526;19.672;2022-09-09T03:10:13;100596.75;;;11.71;100.00
61908;BME280;47864;52.526;19.672;2022-09-09T03:12:15;100607.22;;;11.73;100.00
61908;BME280;47864;52.526;19.672;2022-09-09T03:14:17;100607.31;;;11.89;100.00
61908;BME280;47864;52.526;19.672;2022-09-09T03:16:18;100607.84;;;11.93;100.00
61908;BME280;47864;52.526;19.672;2022-09-09T03:18:21;100608.31;;;11.88;100.00
61908;BME280;47864;52.526;19.672;2022-09-09T03:20:27;100613.22;;;12.01;100.00
61908;BME280;47864;52.526;19.672;2022-09-09T03:22:30;100614.50;;;11.97;100.00
61908;BME280;47864;52.526;19.672;2022-09-09T03:24:31;100611.84;;;11.97;100.00
61908;BME280;47864;52.526;19.672;2022-09-09T03:26:33;100614.88;;;12.02;100.00
61908;BME280;47864;52.526;19.672;2022-09-09T03:28:35;100612.56;;;12.07;100.00
61908;BME280;47864;52.526;19.672;2022-09-09T03:30:37;100608.56;;;12.11;100.00
61908;BME280;47864;52.526;19.672;2022-09-09T03:32:38;100612.06;;;12.11;100.00
61908;BME280;47864;52.526;19.672;2022-09-09T03:34:40;100610.59;;;12.09;100.00
61908;BME280;47864;52.526;19.672;2022-09-09T03:36:42;100614.19;;;12.00;100.00
61908;BME280;47864;52.526;19.672;2022-09-09T03:38:44;100617.72;;;12.08;100.00
61908;BME280;47864;52.526;19.672;2022-09-09T03:40:53;100623.00;;;12.00;100.00
61908;BME280;47864;52.526;19.672;2022-09-09T03:42:55;100616.50;;;12.03;100.00
61908;BME280;47864;52.526;19.672;2022-09-09T03:44:57;100627.34;;;12.01;100.00
61908;BME280;47864;52.526;19.672;2022-09-09T03:46:59;100628.00;;;12.03;100.00
61908;BME280;47864;52.526;19.672;2022-09-09T03:49:00;100625.63;;;11.92;100.00
61908;BME280;47864;52.526;19.672;2022-09-09T03:51:02;100624.72;;;11.75;100.00
61908;BME280;47864;52.526;19.672;2022-09-09T03:53:04;100623.63;;;11.94;100.00
61908;BME280;47864;52.526;19.672;2022-09-09T03:55:06;100624.72;;;11.75;100.00
61908;BME280;47864;52.526;19.672;2022-09-09T03:57:09;100631.25;;;11.89;100.00
61908;BME280;47864;52.526;19.672;2022-09-09T03:59:11;100624.50;;;12.03;100.00
61908;BME280;47864;52.526;19.672;2022-09-09T04:01:14;100621.41;;;11.81;100.00
61908;BME280;47864;52.526;19.672;2022-09-09T04:03:16;100623.78;;;11.85;100.00
61908;BME280;47864;52.526;19.672;2022-09-09T04:05:18;100623.63;;;11.94;100.00
61908;BME280;47864;52.526;19.672;2022-09-09T04:07:20;100624.16;;;11.98;100.00
61908;BME280;47864;52.526;19.672;2022-09-09T04:09:23;100618.84;;;11.98;100.00
61908;BME280;47864;52.526;19.672;2022-09-09T04:11:24;100625.59;;;11.84;100.00
61908;BME280;47864;52.526;19.672;2022-09-09T04:13:26;100622.13;;;11.92;100.00
61908;BME280;47864;52.526;19.672;2022-09-09T04:15:28;100611.00;;;11.70;100.00
61908;BME280;47864;52.526;19.672;2022-09-09T04:17:30;100623.91;;;11.83;100.00
61908;BME280;47864;52.526;19.672;2022-09-09T04:19:32;100626.25;;;11.86;100.00
61908;BME280;47864;52.526;19.672;2022-09-09T04:21:34;100625.75;;;11.82;100.00
61908;BME280;47864;52.526;19.672;2022-09-09T04:23:36;100625.06;;;11.80;100.00
61908;BME280;47864;52.526;19.672;2022-09-09T04:25:43;100624.09;;;11.90;100.00
61908;BME280;47864;52.526;19.672;2022-09-09T04:27:45;100621.94;;;11.85;100.00
61908;BME280;47864;52.526;19.672;2022-09-09T04:29:47;100621.75;;;11.87;100.00
61908;BME280;47864;52.526;19.672;2022-09-09T04:31:49;100616.41;;;11.78;100.00
61908;BME280;47864;52.526;19.672;2022-09-09T04:33:51;100617.09;;;11.80;100.00
61908;BME280;47864;52.526;19.672;2022-09-09T04:35:53;100623.31;;;11.71;100.00
61908;BME280;47864;52.526;19.672;2022-09-09T04:37:55;100627.72;;;11.80;100.00
61908;BME280;47864;52.526;19.672;2022-09-09T04:39:57;100627.22;;;11.77;100.00
61908;BME280;47864;52.526;19.672;2022-09-09T04:41:58;100620.81;;;11.70;100.00
61908;BME280;47864;52.526;19.672;2022-09-09T04:44:00;100628.47;;;11.73;100.00
61908;BME280;47864;52.526;19.672;2022-09-09T04:46:02;100628.34;;;11.74;100.00
61908;BME280;47864;52.526;19.672;2022-09-09T04:48:05;100622.97;;;11.66;100.00
61908;BME280;47864;52.526;19.672;2022-09-09T04:50:08;100636.69;;;11.79;100.00
61908;BME280;47864;52.526;19.672;2022-09-09T04:52:10;100614.81;;;11.86;100.00
61908;BME280;47864;52.526;19.672;2022-09-09T04:54:11;100632.28;;;11.96;100.00
61908;BME280;47864;52.526;19.672;2022-09-09T04:56:15;100629.72;;;11.87;100.00
61908;BME280;47864;52.526;19.672;2022-09-09T04:58:17;100621.16;;;11.93;100.00
61908;BME280;47864;52.526;19.672;2022-09-09T05:00:19;100629.50;;;12.06;100.00
61908;BME280;47864;52.526;19.672;2022-09-09T05:02:21;100637.50;;;12.14;100.00
61908;BME280;47864;52.526;19.672;2022-09-09T05:04:23;100643.63;;;12.06;100.00
61908;BME280;47864;52.526;19.672;2022-09-09T05:06:24;100634.63;;;11.99;100.00
61908;BME280;47864;52.526;19.672;2022-09-09T05:08:26;100634.25;;;11.94;100.00
61908;BME280;47864;52.526;19.672;2022-09-09T05:10:28;100638.00;;;12.09;100.00
61908;BME280;47864;52.526;19.672;2022-09-09T05:12:30;100642.38;;;12.18;100.00
61908;BME280;47864;52.526;19.672;2022-09-09T05:14:32;100642.84;;;12.14;100.00
61908;BME280;47864;52.526;19.672;2022-09-09T05:16:34;100641.19;;;12.21;100.00
61908;BME280;47864;52.526;19.672;2022-09-09T05:18:36;100644.16;;;12.10;100.00
61908;BME280;47864;52.526;19.672;2022-09-09T05:20:38;100638.47;;;12.05;100.00
61908;BME280;47864;52.526;19.672;2022-09-09T05:22:39;100637.16;;;12.09;100.00
61908;BME280;47864;52.526;19.672;2022-09-09T05:24:41;100652.63;;;12.13;100.00
61908;BME280;47864;52.526;19.672;2022-09-09T05:26:43;100631.75;;;11.85;100.00
61908;BME280;47864;52.526;19.672;2022-09-09T05:28:46;100640.09;;;11.98;100.00
61908;BME280;47864;52.526;19.672;2022-09-09T05:30:55;100623.88;;;11.75;100.00
61908;BME280;47864;52.526;19.672;2022-09-09T05:32:57;100641.03;;;11.89;100.00
61908;BME280;47864;52.526;19.672;2022-09-09T05:34:59;100637.41;;;11.90;100.00
61908;BME280;47864;52.526;19.672;2022-09-09T05:37:01;100642.38;;;11.85;100.00
61908;BME280;47864;52.526;19.672;2022-09-09T05:39:03;100650.38;;;11.93;100.00
61908;BME280;47864;52.526;19.672;2022-09-09T05:41:05;100650.72;;;11.98;100.00
61908;BME280;47864;52.526;19.672;2022-09-09T05:43:07;100647.09;;;11.99;100.00
61908;BME280;47864;52.526;19.672;2022-09-09T05:45:09;100645.50;;;12.14;100.00
61908;BME280;47864;52.526;19.672;2022-09-09T05:47:11;100655.59;;;12.02;100.00
61908;BME280;47864;52.526;19.672;2022-09-09T05:49:13;100653.47;;;12.14;100.00
61908;BME280;47864;52.526;19.672;2022-09-09T05:51:17;100654.06;;;12.34;100.00
61908;BME280;47864;52.526;19.672;2022-09-09T05:53:19;100654.28;;;12.48;100.00
61908;BME280;47864;52.526;19.672;2022-09-09T05:55:21;100660.56;;;12.39;100.00
61908;BME280;47864;52.526;19.672;2022-09-09T05:57:23;100654.06;;;12.34;100.00
61908;BME280;47864;52.526;19.672;2022-09-09T05:59:25;100643.66;;;12.14;100.00
61908;BME280;47864;52.526;19.672;2022-09-09T06:01:28;100657.84;;;12.23;100.00
61908;BME280;47864;52.526;19.672;2022-09-09T06:03:30;100646.19;;;12.16;100.00
61908;BME280;47864;52.526;19.672;2022-09-09T06:05:32;100654.03;;;12.26;100.00
61908;BME280;47864;52.526;19.672;2022-09-09T06:07:34;100658.31;;;12.18;100.00
61908;BME280;47864;52.526;19.672;2022-09-09T06:09:36;100661.81;;;12.27;100.00
61908;BME280;47864;52.526;19.672;2022-09-09T06:11:39;100662.03;;;12.34;100.00
61908;BME280;47864;52.526;19.672;2022-09-09T06:13:41;100664.91;;;12.48;100.00
61908;BME280;47864;52.526;19.672;2022-09-09T06:15:50;100670.72;;;12.52;100.00
61908;BME280;47864;52.526;19.672;2022-09-09T06:17:55;100666.72;;;12.40;100.00
61908;BME280;47864;52.526;19.672;2022-09-09T06:19:57;100667.53;;;12.40;100.00
61908;BME280;47864;52.526;19.672;2022-09-09T06:21:58;100667.03;;;12.37;100.00
61908;BME280;47864;52.526;19.672;2022-09-09T06:24:01;100679.38;;;12.54;100.00
61908;BME280;47864;52.526;19.672;2022-09-09T06:26:10;100674.94;;;12.71;100.00
61908;BME280;47864;52.526;19.672;2022-09-09T06:28:12;100677.28;;;12.66;100.00
61908;BME280;47864;52.526;19.672;2022-09-09T06:30:14;100674.63;;;12.66;100.00
61908;BME280;47864;52.526;19.672;2022-09-09T06:32:16;100671.91;;;12.49;100.00
61908;BME280;47864;52.526;19.672;2022-09-09T06:34:17;100674.78;;;12.64;100.00
61908;BME280;47864;52.526;19.672;2022-09-09T06:36:29;100675.59;;;12.65;100.00
61908;BME280;47864;52.526;19.672;2022-09-09T06:38:31;100678.25;;;12.65;100.00
61908;BME280;47864;52.526;19.672;2022-09-09T06:40:33;100665.09;;;12.55;100.00
61908;BME280;47864;52.526;19.672;2022-09-09T06:42:35;100677.44;;;12.72;100.00
61908;BME280;47864;52.526;19.672;2022-09-09T06:44:37;100677.59;;;12.71;100.00
61908;BME280;47864;52.526;19.672;2022-09-09T06:46:39;100662.44;;;12.63;100.00
61908;BME280;47864;52.526;19.672;2022-09-09T06:48:42;100680.88;;;12.48;100.00
61908;BME280;47864;52.526;19.672;2022-09-09T06:50:44;100680.84;;;12.40;100.00
61908;BME280;47864;52.526;19.672;2022-09-09T06:52:46;100683.38;;;12.50;100.00
61908;BME280;47864;52.526;19.672;2022-09-09T06:54:48;100679.06;;;12.57;100.00
61908;BME280;47864;52.526;19.672;2022-09-09T06:56:50;100683.28;;;12.76;100.00
61908;BME280;47864;52.526;19.672;2022-09-09T06:58:52;100676.44;;;12.65;100.00
61908;BME280;47864;52.526;19.672;2022-09-09T07:01:07;100682.22;;;12.61;100.00
61908;BME280;47864;52.526;19.672;2022-09-09T07:03:10;100678.25;;;12.65;100.00
61908;BME280;47864;52.526;19.672;2022-09-09T07:05:12;100690.38;;;12.51;100.00
61908;BME280;47864;52.526;19.672;2022-09-09T07:07:13;100689.31;;;12.44;100.00
61908;BME280;47864;52.526;19.672;2022-09-09T07:09:16;100690.53;;;12.49;100.00
61908;BME280;47864;52.526;19.672;2022-09-09T07:11:19;100690.50;;;12.41;100.00
61908;BME280;47864;52.526;19.672;2022-09-09T07:13:25;100695.69;;;12.51;100.00
61908;BME280;47864;52.526;19.672;2022-09-09T07:15:27;100698.69;;;12.56;100.00
61908;BME280;47864;52.526;19.672;2022-09-09T07:17:29;100694.16;;;12.40;100.00
61908;BME280;47864;52.526;19.672;2022-09-09T07:19:30;100703.22;;;12.64;100.00
61908;BME280;47864;52.526;19.672;2022-09-09T07:21:33;100699.06;;;12.69;100.00
61908;BME280;47864;52.526;19.672;2022-09-09T07:23:35;100654.31;;;12.65;100.00
61908;BME280;47864;52.526;19.672;2022-09-09T07:25:37;100702.56;;;12.78;100.00
61908;BME280;47864;52.526;19.672;2022-09-09T07:27:38;100706.22;;;12.69;100.00
61908;BME280;47864;52.526;19.672;2022-09-09T07:29:40;100710.16;;;12.48;100.00
61908;BME280;47864;52.526;19.672;2022-09-09T07:31:42;100708.38;;;12.65;100.00
61908;BME280;47864;52.526;19.672;2022-09-09T07:33:44;100714.56;;;12.74;100.00
61908;BME280;47864;52.526;19.672;2022-09-09T07:35:46;100710.50;;;12.62;100.00
61908;BME280;47864;52.526;19.672;2022-09-09T07:37:48;100721.72;;;12.73;100.00
61908;BME280;47864;52.526;19.672;2022-09-09T07:39:51;100717.91;;;12.76;100.00
61908;BME280;47864;52.526;19.672;2022-09-09T07:41:53;100718.50;;;12.62;100.00
61908;BME280;47864;52.526;19.672;2022-09-09T07:43:55;100723.19;;;12.68;100.00
61908;BME280;47864;52.526;19.672;2022-09-09T07:45:58;100717.41;;;12.80;100.00
61908;BME280;47864;52.526;19.672;2022-09-09T07:48:01;100720.56;;;12.76;100.00
61908;BME280;47864;52.526;19.672;2022-09-09T07:50:03;100715.41;;;12.74;100.00
61908;BME280;47864;52.526;19.672;2022-09-09T07:52:04;100725.88;;;12.76;100.00
61908;BME280;47864;52.526;19.672;2022-09-09T07:54:13;100727.75;;;12.91;100.00
61908;BME280;47864;52.526;19.672;2022-09-09T07:56:17;100729.00;;;12.71;100.00
61908;BME280;47864;52.526;19.672;2022-09-09T07:58:19;100726.75;;;12.84;100.00
61908;BME280;47864;52.526;19.672;2022-09-09T08:00:21;100731.88;;;12.86;100.00
61908;BME280;47864;52.526;19.672;2022-09-09T08:02:23;100716.59;;;12.96;100.00
61908;BME280;47864;52.526;19.672;2022-09-09T08:04:26;100729.28;;;13.10;100.00
61908;BME280;47864;52.526;19.672;2022-09-09T08:06:30;100735.81;;;13.16;100.00
61908;BME280;47864;52.526;19.672;2022-09-09T08:08:33;100741.00;;;13.33;100.00
61908;BME280;47864;52.526;19.672;2022-09-09T08:10:40;100736.00;;;13.22;100.00
61908;BME280;47864;52.526;19.672;2022-09-09T08:12:48;100742.34;;;13.29;100.00
61908;BME280;47864;52.526;19.672;2022-09-09T08:15:10;100753.09;;;13.12;100.00
61908;BME280;47864;52.526;19.672;2022-09-09T08:17:12;100747.75;;;13.04;100.00
61908;BME280;47864;52.526;19.672;2022-09-09T08:19:14;100750.06;;;12.99;100.00
61908;BME280;47864;52.526;19.672;2022-09-09T08:21:19;100751.66;;;13.17;100.00
61908;BME280;47864;52.526;19.672;2022-09-09T08:23:26;100757.97;;;13.16;100.00
61908;BME280;47864;52.526;19.672;2022-09-09T08:25:30;100758.03;;;12.90;100.00
61908;BME280;47864;52.526;19.672;2022-09-09T08:27:32;100760.06;;;13.05;100.00
61908;BME280;47864;52.526;19.672;2022-09-09T08:29:33;100754.06;;;13.11;100.00
61908;BME280;47864;52.526;19.672;2022-09-09T08:31:37;100758.88;;;12.91;100.00
61908;BME280;47864;52.526;19.672;2022-09-09T08:33:41;100760.38;;;13.02;100.00
61908;BME280;47864;52.526;19.672;2022-09-09T08:35:50;100764.06;;;13.01;100.00
61908;BME280;47864;52.526;19.672;2022-09-09T08:37:54;100766.97;;;13.15;100.00
61908;BME280;47864;52.526;19.672;2022-09-09T08:39:56;100766.13;;;13.23;100.00
61908;BME280;47864;52.526;19.672;2022-09-09T08:42:40;100773.50;;;13.45;100.00
61908;BME280;47864;52.526;19.672;2022-09-09T08:45:03;100768.16;;;13.37;100.00
61908;BME280;47864;52.526;19.672;2022-09-09T08:47:54;100774.34;;;12.95;100.00
61908;BME280;47864;52.526;19.672;2022-09-09T08:52:23;100770.81;;;13.37;100.00
61908;BME280;47864;52.526;19.672;2022-09-09T08:54:32;100777.28;;;13.34;100.00
61908;BME280;47864;52.526;19.672;2022-09-09T08:56:52;100772.34;;;13.48;100.00
61908;BME280;47864;52.526;19.672;2022-09-09T08:58:55;100778.50;;;13.56;100.00
61908;BME280;47864;52.526;19.672;2022-09-09T09:12:44;100788.66;;;13.61;100.00
61908;BME280;47864;52.526;19.672;2022-09-09T09:14:48;100785.16;;;13.68;100.00
61908;BME280;47864;52.526;19.672;2022-09-09T09:18:57;100777.00;;;13.70;100.00
61908;BME280;47864;52.526;19.672;2022-09-09T09:21:13;100786.97;;;14.00;100.00
61908;BME280;47864;52.526;19.672;2022-09-09T09:23:30;100782.00;;;14.05;100.00
61908;BME280;47864;52.526;19.672;2022-09-09T09:25:39;100774.16;;;13.96;100.00
61908;BME280;47864;52.526;19.672;2022-09-09T09:28:10;100778.34;;;13.98;100.00
61908;BME280;47864;52.526;19.672;2022-09-09T09:30:17;100783.00;;;13.96;100.00
61908;BME280;47864;52.526;19.672;2022-09-09T09:32:33;100784.97;;;14.10;100.00
61908;BME280;47864;52.526;19.672;2022-09-09T09:34:35;100784.81;;;14.12;100.00
61908;BME280;47864;52.526;19.672;2022-09-09T09:36:45;100785.81;;;14.11;100.00
61908;BME280;47864;52.526;19.672;2022-09-09T09:38:59;100785.31;;;14.16;100.00
61908;BME280;47864;52.526;19.672;2022-09-09T09:41:31;100791.81;;;14.13;100.00
61908;BME280;47864;52.526;19.672;2022-09-09T09:43:36;100787.59;;;14.27;100.00
61908;BME280;47864;52.526;19.672;2022-09-09T09:45:43;100787.59;;;14.27;100.00
61908;BME280;47864;52.526;19.672;2022-09-09T09:48:05;100756.63;;;14.01;100.00
61908;BME280;47864;52.526;19.672;2022-09-09T09:50:19;100795.31;;;14.22;100.00
61908;BME280;47864;52.526;19.672;2022-09-09T09:52:23;100799.28;;;14.26;100.00
61908;BME280;47864;52.526;19.672;2022-09-09T09:54:31;100796.44;;;14.43;100.00
61908;BME280;47864;52.526;19.672;2022-09-09T09:56:34;100800.59;;;14.38;100.00
61908;BME280;47864;52.526;19.672;2022-09-09T09:58:49;100801.47;;;14.38;100.00
61908;BME280;47864;52.526;19.672;2022-09-09T10:00:53;100804.78;;;14.32;100.00
61908;BME280;47864;52.526;19.672;2022-09-09T10:02:55;100798.81;;;14.14;100.00
61908;BME280;47864;52.526;19.672;2022-09-09T10:05:05;100802.16;;;14.16;100.00
61908;BME280;47864;52.526;19.672;2022-09-09T10:07:19;100801.97;;;14.18;100.00
61908;BME280;47864;52.526;19.672;2022-09-09T10:09:25;100810.50;;;14.13;100.00
61908;BME280;47864;52.526;19.672;2022-09-09T10:19:03;100808.97;;;14.19;100.00
61908;BME280;47864;52.526;19.672;2022-09-09T10:21:24;100816.16;;;14.10;100.00
61908;BME280;47864;52.526;19.672;2022-09-09T10:24:03;100810.47;;;14.21;100.00
61908;BME280;47864;52.526;19.672;2022-09-09T10:37:16;100816.03;;;14.75;100.00
61908;BME280;47864;52.526;19.672;2022-09-09T10:39:39;100807.25;;;14.58;100.00
61908;BME280;47864;52.526;19.672;2022-09-09T10:42:02;100811.91;;;14.64;100.00
61908;BME280;47864;52.526;19.672;2022-09-09T10:44:11;100814.19;;;14.75;100.00
61908;BME280;47864;52.526;19.672;2022-09-09T10:48:57;100814.81;;;14.85;100.00
61908;BME280;47864;52.526;19.672;2022-09-09T10:51:23;100818.94;;;15.04;100.00
61908;BME280;47864;52.526;19.672;2022-09-09T10:56:13;100821.59;;;15.35;100.00
61908;BME280;47864;52.526;19.672;2022-09-09T10:59:20;100825.97;;;15.59;100.00
61908;BME280;47864;52.526;19.672;2022-09-09T11:01:10;100824.63;;;15.63;100.00
61908;BME280;47864;52.526;19.672;2022-09-09T11:03:21;100822.78;;;15.64;100.00
61908;BME280;47864;52.526;19.672;2022-09-09T11:07:42;100842.44;;;15.93;100.00
61908;BME280;47864;52.526;19.672;2022-09-09T11:09:50;100842.28;;;15.95;100.00
61908;BME280;47864;52.526;19.672;2022-09-09T11:11:56;100835.53;;;15.99;100.00
61908;BME280;47864;52.526;19.672;2022-09-09T11:16:31;100843.63;;;16.14;100.00
61908;BME280;47864;52.526;19.672;2022-09-09T11:18:38;100843.13;;;16.10;100.00
61908;BME280;47864;52.526;19.672;2022-09-09T11:20:42;100841.47;;;16.09;100.00
61908;BME280;47864;52.526;19.672;2022-09-09T11:23:06;100842.28;;;15.95;100.00
61908;BME280;47864;52.526;19.672;2022-09-09T11:25:18;100846.69;;;16.25;100.00
61908;BME280;47864;52.526;19.672;2022-09-09T11:35:11;100861.28;;;15.77;100.00
61908;BME280;47864;52.526;19.672;2022-09-09T11:40:08;100855.28;;;15.75;100.00
61908;BME280;47864;52.526;19.672;2022-09-09T11:42:15;100856.38;;;15.89;100.00
61908;BME280;47864;52.526;19.672;2022-09-09T11:44:28;100861.53;;;16.13;100.00
61908;BME280;47864;52.526;19.672;2022-09-09T11:46:38;100856.44;;;16.18;100.00
61908;BME280;47864;52.526;19.672;2022-09-09T11:48:41;100860.38;;;16.30;100.00
61908;BME280;47864;52.526;19.672;2022-09-09T11:50:43;100856.03;;;16.29;100.00
61908;BME280;47864;52.526;19.672;2022-09-09T11:52:47;100861.06;;;16.24;100.00
61908;BME280;47864;52.526;19.672;2022-09-09T11:54:49;100865.91;;;16.44;100.00
61908;BME280;47864;52.526;19.672;2022-09-09T11:56:51;100861.13;;;16.54;100.00
61908;BME280;47864;52.526;19.672;2022-09-09T11:59:04;100862.88;;;16.47;100.00
61908;BME280;47864;52.526;19.672;2022-09-09T12:03:50;100862.75;;;16.25;100.00
61908;BME280;47864;52.526;19.672;2022-09-09T12:05:57;100874.63;;;16.23;100.00
61908;BME280;47864;52.526;19.672;2022-09-09T12:08:00;100867.88;;;16.12;100.00
61908;BME280;47864;52.526;19.672;2022-09-09T12:10:23;100865.00;;;16.36;100.00
61908;BME280;47864;52.526;19.672;2022-09-09T12:12:35;100851.25;;;16.54;100.00
61908;BME280;47864;52.526;19.672;2022-09-09T12:14:56;100857.38;;;16.92;100.00
61908;BME280;47864;52.526;19.672;2022-09-09T12:17:31;100845.72;;;17.15;100.00